WXM80 ListenWXM80 Stop

You find our weather info also at:

UK Metoffice

WeatherCloud

Weather Underground

Northeastern Weather Network

AWEKAS

Citizen Weather Observer Program (CWOP)

HAMweather, WeatherForYou, PWS Weather


Weather Underground History page Text

Daily Summary for February 12, 2018 Units:  Both    English   Metric
« Previous Day
Next Day »
Daily Weekly Monthly Yearly Custom
  High: Low: Average:
Temperature: 58.2 °F /  14.6 °C 31.8 °F /  -0.1 °C 42.9 °F /  6.1 °C
Dew Point: 57.9 °F /  14.4 °C 23.1 °F /  -4.9 °C 37.9 °F /  3.3 °C
Humidity: 99 % 68 % 83 %
Wind Speed: 9.2 mph /  14.8 km/h - 3 mph /  4.8 km/h
Wind Gust: 13.8 mph /  22.2 km/h - -
Wind:- - WSW
Pressure: 30.43 in /  1030.4 hPa 29.65 in /  1003.9 hPa -
Precipitation: 0.00 in /  0 mm    
Historical Graphs
 
 
Tabular Data for February 12, 2018
Time Temperature Dew Point Pressure Wind Wind Speed Wind Gust Humidity Rainfall Rate (Hourly)
00:01 56.8 °F /  13.8 °C 56.2 °F /  13.4 °C 29.65 in /  1003.9 hPa SSE 7.0 mph /  11.3 km/h 7.0 mph /  11.3 km/h 98 % 0.00 in /  0 mm
00:06 56.7 °F /  13.7 °C 56.1 °F /  13.4 °C 29.65 in /  1003.9 hPa SSW 6.2 mph /  10 km/h 10.4 mph /  16.7 km/h 98 % 0.00 in /  0 mm
00:11 56.7 °F /  13.7 °C 56.1 °F /  13.4 °C 29.65 in /  1003.9 hPa South 6.0 mph /  9.7 km/h 7.0 mph /  11.3 km/h 98 % 0.00 in /  0 mm
00:16 56.7 °F /  13.7 °C 56.1 °F /  13.4 °C 29.65 in /  1003.9 hPa South 4.3 mph /  6.9 km/h 8.1 mph /  13 km/h 98 % 0.00 in /  0 mm
00:22 56.7 °F /  13.7 °C 56.1 °F /  13.4 °C 29.65 in /  1003.9 hPa SSW 3.9 mph /  6.3 km/h 8.0 mph /  12.9 km/h 98 % 0.00 in /  0 mm
00:27 56.6 °F /  13.7 °C 56.0 °F /  13.3 °C 29.65 in /  1003.9 hPa SSW 4.1 mph /  6.6 km/h 4.6 mph /  7.4 km/h 98 % 0.00 in /  0 mm
00:32 56.6 °F /  13.7 °C 56.0 °F /  13.3 °C 29.65 in /  1003.9 hPa South 2.9 mph /  4.7 km/h 5.8 mph /  9.3 km/h 98 % 0.00 in /  0 mm
00:37 56.6 °F /  13.7 °C 56.0 °F /  13.3 °C 29.65 in /  1003.9 hPa SSW 4.0 mph /  6.4 km/h 11.5 mph /  18.5 km/h 98 % 0.00 in /  0 mm
00:42 56.7 °F /  13.7 °C 56.1 °F /  13.4 °C 29.66 in /  1004.3 hPa SSW 4.9 mph /  7.9 km/h 10.4 mph /  16.7 km/h 98 % 0.00 in /  0 mm
00:47 56.9 °F /  13.8 °C 56.3 °F /  13.5 °C 29.66 in /  1004.3 hPa SSW 3.8 mph /  6.1 km/h 5.8 mph /  9.3 km/h 98 % 0.00 in /  0 mm
00:52 57.1 °F /  13.9 °C 56.5 °F /  13.6 °C 29.65 in /  1003.9 hPa SSW 2.2 mph /  3.5 km/h 3.5 mph /  5.6 km/h 98 % 0.00 in /  0 mm
00:57 57.1 °F /  13.9 °C 56.5 °F /  13.6 °C 29.66 in /  1004.3 hPa WSW 5.0 mph /  8 km/h 9.2 mph /  14.8 km/h 98 % 0.00 in /  0 mm
01:02 57.2 °F /  14 °C 56.6 °F /  13.7 °C 29.66 in /  1004.3 hPa SW 4.6 mph /  7.4 km/h 6.0 mph /  9.7 km/h 98 % 0.00 in /  0 mm
01:07 57.2 °F /  14 °C 56.6 °F /  13.7 °C 29.66 in /  1004.3 hPa SW 3.6 mph /  5.8 km/h 5.0 mph /  8 km/h 98 % 0.00 in /  0 mm
01:12 57.3 °F /  14.1 °C 57.0 °F /  13.9 °C 29.67 in /  1004.6 hPa SSW 0.8 mph /  1.3 km/h 3.5 mph /  5.6 km/h 99 % 0.00 in /  0 mm
01:17 57.4 °F /  14.1 °C 57.1 °F /  13.9 °C 29.67 in /  1004.6 hPa WSW 3.0 mph /  4.8 km/h 6.9 mph /  11.1 km/h 99 % 0.00 in /  0 mm
01:22 57.5 °F /  14.2 °C 57.2 °F /  14 °C 29.68 in /  1005 hPa SW 1.8 mph /  2.9 km/h 6.0 mph /  9.7 km/h 99 % 0.00 in /  0 mm
01:27 57.6 °F /  14.2 °C 57.0 °F /  13.9 °C 29.68 in /  1005 hPa West 4.3 mph /  6.9 km/h 10.4 mph /  16.7 km/h 98 % 0.00 in /  0 mm
01:32 57.7 °F /  14.3 °C 57.1 °F /  13.9 °C 29.68 in /  1005 hPa WSW 1.5 mph /  2.4 km/h 6.9 mph /  11.1 km/h 98 % 0.00 in /  0 mm
01:37 57.8 °F /  14.3 °C 57.2 °F /  14 °C 29.68 in /  1005 hPa South 2.9 mph /  4.7 km/h 10.4 mph /  16.7 km/h 98 % 0.00 in /  0 mm
01:42 58.0 °F /  14.4 °C 57.7 °F /  14.3 °C 29.68 in /  1005 hPa SW 4.3 mph /  6.9 km/h 8.1 mph /  13 km/h 99 % 0.00 in /  0 mm
01:47 58.1 °F /  14.5 °C 57.8 °F /  14.3 °C 29.68 in /  1005 hPa WSW 2.8 mph /  4.5 km/h 4.6 mph /  7.4 km/h 99 % 0.00 in /  0 mm
01:53 58.1 °F /  14.5 °C 57.8 °F /  14.3 °C 29.68 in /  1005 hPa SSW 5.8 mph /  9.3 km/h 9.2 mph /  14.8 km/h 99 % 0.00 in /  0 mm
01:58 58.2 °F /  14.6 °C 57.9 °F /  14.4 °C 29.68 in /  1005 hPa WSW 3.0 mph /  4.8 km/h 4.6 mph /  7.4 km/h 99 % 0.00 in /  0 mm
02:03 58.2 °F /  14.6 °C 57.9 °F /  14.4 °C 29.68 in /  1005 hPa SSW 4.6 mph /  7.4 km/h 8.1 mph /  13 km/h 99 % 0.00 in /  0 mm
02:08 58.1 °F /  14.5 °C 57.8 °F /  14.3 °C 29.68 in /  1005 hPa SW 2.9 mph /  4.7 km/h 3.5 mph /  5.6 km/h 99 % 0.00 in /  0 mm
02:13 58.1 °F /  14.5 °C 57.8 °F /  14.3 °C 29.69 in /  1005.3 hPa SSW 4.3 mph /  6.9 km/h 6.9 mph /  11.1 km/h 99 % 0.00 in /  0 mm
02:18 58.0 °F /  14.4 °C 57.4 °F /  14.1 °C 29.69 in /  1005.3 hPa SW 5.2 mph /  8.4 km/h 8.1 mph /  13 km/h 98 % 0.00 in /  0 mm
02:23 58.0 °F /  14.4 °C 57.4 °F /  14.1 °C 29.70 in /  1005.6 hPa SSW 3.2 mph /  5.1 km/h 4.6 mph /  7.4 km/h 98 % 0.00 in /  0 mm
02:28 57.9 °F /  14.4 °C 57.3 °F /  14.1 °C 29.70 in /  1005.6 hPa SSW 4.7 mph /  7.6 km/h 6.9 mph /  11.1 km/h 98 % 0.00 in /  0 mm
02:33 57.8 °F /  14.3 °C 57.2 °F /  14 °C 29.70 in /  1005.6 hPa WSW 3.4 mph /  5.5 km/h 6.0 mph /  9.7 km/h 98 % 0.00 in /  0 mm
02:38 57.8 °F /  14.3 °C 57.2 °F /  14 °C 29.70 in /  1005.6 hPa SSW 4.3 mph /  6.9 km/h 6.9 mph /  11.1 km/h 98 % 0.00 in /  0 mm
02:43 57.8 °F /  14.3 °C 57.2 °F /  14 °C 29.70 in /  1005.6 hPa WSW 3.1 mph /  5 km/h 6.0 mph /  9.7 km/h 98 % 0.00 in /  0 mm
02:48 57.8 °F /  14.3 °C 57.2 °F /  14 °C 29.70 in /  1005.6 hPa WSW 3.5 mph /  5.6 km/h 5.8 mph /  9.3 km/h 98 % 0.00 in /  0 mm
02:53 57.8 °F /  14.3 °C 57.2 °F /  14 °C 29.71 in /  1006 hPa WSW 1.4 mph /  2.3 km/h 3.5 mph /  5.6 km/h 98 % 0.00 in /  0 mm
02:58 57.8 °F /  14.3 °C 57.2 °F /  14 °C 29.71 in /  1006 hPa WSW 3.0 mph /  4.8 km/h 5.8 mph /  9.3 km/h 98 % 0.00 in /  0 mm
03:03 57.8 °F /  14.3 °C 57.2 °F /  14 °C 29.72 in /  1006.3 hPa WSW 1.3 mph /  2.1 km/h 3.5 mph /  5.6 km/h 98 % 0.00 in /  0 mm
03:08 57.7 °F /  14.3 °C 57.1 °F /  13.9 °C 29.72 in /  1006.3 hPa SSW 4.2 mph /  6.8 km/h 5.0 mph /  8 km/h 98 % 0.00 in /  0 mm
03:13 57.7 °F /  14.3 °C 57.1 °F /  13.9 °C 29.72 in /  1006.3 hPa SW 1.9 mph /  3.1 km/h 5.0 mph /  8 km/h 98 % 0.00 in /  0 mm
03:18 57.7 °F /  14.3 °C 57.1 °F /  13.9 °C 29.72 in /  1006.3 hPa SSW 4.3 mph /  6.9 km/h 4.6 mph /  7.4 km/h 98 % 0.00 in /  0 mm
03:23 57.7 °F /  14.3 °C 57.1 °F /  13.9 °C 29.72 in /  1006.3 hPa SSW 2.0 mph /  3.2 km/h 5.8 mph /  9.3 km/h 98 % 0.00 in /  0 mm
03:29 57.6 °F /  14.2 °C 57.0 °F /  13.9 °C 29.72 in /  1006.3 hPa WSW 1.4 mph /  2.3 km/h 4.6 mph /  7.4 km/h 98 % 0.00 in /  0 mm
03:34 57.5 °F /  14.2 °C 56.9 °F /  13.8 °C 29.72 in /  1006.3 hPa West 0.9 mph /  1.4 km/h 5.8 mph /  9.3 km/h 98 % 0.00 in /  0 mm
03:39 57.4 °F /  14.1 °C 56.8 °F /  13.8 °C 29.73 in /  1006.7 hPa SW 2.8 mph /  4.5 km/h 6.9 mph /  11.1 km/h 98 % 0.00 in /  0 mm
03:44 57.1 °F /  13.9 °C 56.5 °F /  13.6 °C 29.73 in /  1006.7 hPa SSW 5.7 mph /  9.2 km/h 8.0 mph /  12.9 km/h 98 % 0.00 in /  0 mm
03:49 56.9 °F /  13.8 °C 56.3 °F /  13.5 °C 29.74 in /  1007 hPa SW 4.0 mph /  6.4 km/h 13.8 mph /  22.2 km/h 98 % 0.00 in /  0 mm
03:54 56.7 °F /  13.7 °C 56.1 °F /  13.4 °C 29.74 in /  1007 hPa West 9.2 mph /  14.8 km/h 11.5 mph /  18.5 km/h 98 % 0.00 in /  0 mm
03:59 56.4 °F /  13.6 °C 55.8 °F /  13.2 °C 29.74 in /  1007 hPa WSW 5.4 mph /  8.7 km/h 7.0 mph /  11.3 km/h 98 % 0.00 in /  0 mm
04:04 56.3 °F /  13.5 °C 55.5 °F /  13.1 °C 29.74 in /  1007 hPa WNW 4.7 mph /  7.6 km/h 11.5 mph /  18.5 km/h 97 % 0.00 in /  0 mm
04:09 56.1 °F /  13.4 °C 55.3 °F /  12.9 °C 29.74 in /  1007 hPa WSW 6.5 mph /  10.5 km/h 11.5 mph /  18.5 km/h 97 % 0.00 in /  0 mm
04:14 56.0 °F /  13.3 °C 54.9 °F /  12.7 °C 29.75 in /  1007.3 hPa WSW 2.3 mph /  3.7 km/h 6.9 mph /  11.1 km/h 96 % 0.00 in /  0 mm
04:19 55.9 °F /  13.3 °C 54.8 °F /  12.7 °C 29.76 in /  1007.7 hPa West 5.1 mph /  8.2 km/h 11.0 mph /  17.7 km/h 96 % 0.00 in /  0 mm
04:24 55.8 °F /  13.2 °C 54.4 °F /  12.4 °C 29.76 in /  1007.7 hPa West 0.3 mph /  0.5 km/h 8.1 mph /  13 km/h 95 % 0.00 in /  0 mm
04:29 55.7 °F /  13.2 °C 54.3 °F /  12.4 °C 29.77 in /  1008 hPa West 4.8 mph /  7.7 km/h 8.1 mph /  13 km/h 95 % 0.00 in /  0 mm
04:34 55.7 °F /  13.2 °C 54.0 °F /  12.2 °C 29.77 in /  1008 hPa West 0.6 mph /  1 km/h 4.6 mph /  7.4 km/h 94 % 0.00 in /  0 mm
04:39 55.7 °F /  13.2 °C 54.0 °F /  12.2 °C 29.77 in /  1008 hPa West 3.8 mph /  6.1 km/h 6.9 mph /  11.1 km/h 94 % 0.00 in /  0 mm
04:44 55.6 °F /  13.1 °C 53.6 °F /  12 °C 29.77 in /  1008 hPa WNW 3.4 mph /  5.5 km/h 5.8 mph /  9.3 km/h 93 % 0.00 in /  0 mm
04:49 55.5 °F /  13.1 °C 53.5 °F /  11.9 °C 29.79 in /  1008.7 hPa West 7.1 mph /  11.4 km/h 11.0 mph /  17.7 km/h 93 % 0.00 in /  0 mm
04:55 55.4 °F /  13 °C 53.1 °F /  11.7 °C 29.79 in /  1008.7 hPa NW 6.8 mph /  10.9 km/h 10.4 mph /  16.7 km/h 92 % 0.00 in /  0 mm
05:00 55.1 °F /  12.8 °C 52.5 °F /  11.4 °C 29.80 in /  1009 hPa WNW 2.6 mph /  4.2 km/h 9.0 mph /  14.5 km/h 91 % 0.00 in /  0 mm
05:05 54.6 °F /  12.6 °C 51.4 °F /  10.8 °C 29.81 in /  1009.4 hPa NW 7.5 mph /  12.1 km/h 11.5 mph /  18.5 km/h 89 % 0.00 in /  0 mm
05:10 53.9 °F /  12.2 °C 50.1 °F /  10.1 °C 29.82 in /  1009.7 hPa NW 3.9 mph /  6.3 km/h 11.5 mph /  18.5 km/h 87 % 0.00 in /  0 mm
05:15 52.8 °F /  11.6 °C 48.7 °F /  9.3 °C 29.82 in /  1009.7 hPa WNW 5.4 mph /  8.7 km/h 9.2 mph /  14.8 km/h 86 % 0.00 in /  0 mm
05:20 52.1 °F /  11.2 °C 47.7 °F /  8.7 °C 29.82 in /  1009.7 hPa WNW 5.3 mph /  8.5 km/h 10.0 mph /  16.1 km/h 85 % 0.00 in /  0 mm
05:25 51.1 °F /  10.6 °C 46.1 °F /  7.8 °C 29.82 in /  1009.7 hPa NW 5.4 mph /  8.7 km/h 11.5 mph /  18.5 km/h 83 % 0.00 in /  0 mm
05:30 50.4 °F /  10.2 °C 46.1 °F /  7.8 °C 29.82 in /  1009.7 hPa NW 3.3 mph /  5.3 km/h 8.0 mph /  12.9 km/h 85 % 0.00 in /  0 mm
05:35 50.0 °F /  10 °C 46.0 °F /  7.8 °C 29.83 in /  1010 hPa West 5.2 mph /  8.4 km/h 8.1 mph /  13 km/h 86 % 0.00 in /  0 mm
05:40 49.7 °F /  9.8 °C 46.0 °F /  7.8 °C 29.83 in /  1010 hPa West 3.7 mph /  6 km/h 5.8 mph /  9.3 km/h 87 % 0.00 in /  0 mm
05:45 49.6 °F /  9.8 °C 46.2 °F /  7.9 °C 29.83 in /  1010 hPa West 5.3 mph /  8.5 km/h 11.5 mph /  18.5 km/h 88 % 0.00 in /  0 mm
05:50 49.3 °F /  9.6 °C 45.9 °F /  7.7 °C 29.83 in /  1010 hPa NW 7.0 mph /  11.3 km/h 9.2 mph /  14.8 km/h 88 % 0.00 in /  0 mm
05:55 49.1 °F /  9.5 °C 45.4 °F /  7.4 °C 29.84 in /  1010.4 hPa West 2.2 mph /  3.5 km/h 7.0 mph /  11.3 km/h 87 % 0.00 in /  0 mm
06:00 48.9 °F /  9.4 °C 45.2 °F /  7.3 °C 29.84 in /  1010.4 hPa West 4.1 mph /  6.6 km/h 6.9 mph /  11.1 km/h 87 % 0.00 in /  0 mm
06:05 48.7 °F /  9.3 °C 44.7 °F /  7.1 °C 29.85 in /  1010.7 hPa WNW 5.1 mph /  8.2 km/h 8.1 mph /  13 km/h 86 % 0.00 in /  0 mm
06:10 48.6 °F /  9.2 °C 44.6 °F /  7 °C 29.85 in /  1010.7 hPa NNW 5.4 mph /  8.7 km/h 12.0 mph /  19.3 km/h 86 % 0.00 in /  0 mm
06:15 48.4 °F /  9.1 °C 44.1 °F /  6.7 °C 29.86 in /  1011.1 hPa WNW 5.0 mph /  8 km/h 8.0 mph /  12.9 km/h 85 % 0.00 in /  0 mm
06:20 47.9 °F /  8.8 °C 43.3 °F /  6.3 °C 29.86 in /  1011.1 hPa NW 4.7 mph /  7.6 km/h 8.1 mph /  13 km/h 84 % 0.00 in /  0 mm
06:21 48.0 °F /  8.9 °C 43.4 °F /  6.3 °C 29.86 in /  1011.1 hPa WNW 5.0 mph /  8 km/h 13.0 mph /  20.9 km/h 84 % 0.00 in /  0 mm
06:26 47.5 °F /  8.6 °C 43.2 °F /  6.2 °C 29.87 in /  1011.4 hPa NW 5.0 mph /  8 km/h 9.0 mph /  14.5 km/h 85 % 0.00 in /  0 mm
06:31 47.0 °F /  8.3 °C 42.7 °F /  5.9 °C 29.87 in /  1011.4 hPa NW 3.0 mph /  4.8 km/h 7.0 mph /  11.3 km/h 85 % 0.00 in /  0 mm
06:36 46.4 °F /  8 °C 42.4 °F /  5.8 °C 29.88 in /  1011.7 hPa NW 4.3 mph /  6.9 km/h 11.5 mph /  18.5 km/h 86 % 0.00 in /  0 mm
06:41 46.0 °F /  7.8 °C 42.4 °F /  5.8 °C 29.88 in /  1011.7 hPa NNW 6.0 mph /  9.7 km/h 12.0 mph /  19.3 km/h 87 % 0.00 in /  0 mm
06:46 45.6 °F /  7.6 °C 42.3 °F /  5.7 °C 29.88 in /  1011.7 hPa NNW 5.0 mph /  8 km/h 12.0 mph /  19.3 km/h 88 % 0.00 in /  0 mm
06:51 45.4 °F /  7.4 °C 42.0 °F /  5.6 °C 29.89 in /  1012.1 hPa NNW 3.0 mph /  4.8 km/h 10.0 mph /  16.1 km/h 88 % 0.00 in /  0 mm
06:56 45.0 °F /  7.2 °C 41.7 °F /  5.4 °C 29.91 in /  1012.8 hPa NNW 2.0 mph /  3.2 km/h 8.0 mph /  12.9 km/h 88 % 0.00 in /  0 mm
07:01 44.6 °F /  7 °C 41.3 °F /  5.2 °C 29.91 in /  1012.8 hPa NW 3.9 mph /  6.3 km/h 9.2 mph /  14.8 km/h 88 % 0.00 in /  0 mm
07:06 44.1 °F /  6.7 °C 40.8 °F /  4.9 °C 29.91 in /  1012.8 hPa NW 4.0 mph /  6.4 km/h 5.0 mph /  8 km/h 88 % 0.00 in /  0 mm
07:12 43.5 °F /  6.4 °C 40.2 °F /  4.6 °C 29.91 in /  1012.8 hPa NNW 4.2 mph /  6.8 km/h 5.0 mph /  8 km/h 88 % 0.00 in /  0 mm
07:17 43.1 °F /  6.2 °C 39.8 °F /  4.3 °C 29.92 in /  1013.1 hPa NNW 2.7 mph /  4.3 km/h 9.2 mph /  14.8 km/h 88 % 0.00 in /  0 mm
07:22 42.7 °F /  5.9 °C 39.4 °F /  4.1 °C 29.92 in /  1013.1 hPa North 6.2 mph /  10 km/h 11.5 mph /  18.5 km/h 88 % 0.00 in /  0 mm
07:27 42.4 °F /  5.8 °C 39.1 °F /  3.9 °C 29.92 in /  1013.1 hPa NNE 4.0 mph /  6.4 km/h 6.9 mph /  11.1 km/h 88 % 0.00 in /  0 mm
07:32 42.1 °F /  5.6 °C 38.8 °F /  3.8 °C 29.93 in /  1013.4 hPa NNE 1.7 mph /  2.7 km/h 4.6 mph /  7.4 km/h 88 % 0.00 in /  0 mm
07:37 41.9 °F /  5.5 °C 38.9 °F /  3.8 °C 29.93 in /  1013.4 hPa NNE 1.9 mph /  3.1 km/h 4.6 mph /  7.4 km/h 89 % 0.00 in /  0 mm
07:42 41.7 °F /  5.4 °C 38.7 °F /  3.7 °C 29.95 in /  1014.1 hPa NNW 4.6 mph /  7.4 km/h 6.9 mph /  11.1 km/h 89 % 0.00 in /  0 mm
07:47 41.4 °F /  5.2 °C 38.1 °F /  3.4 °C 29.94 in /  1013.8 hPa North 2.5 mph /  4 km/h 6.9 mph /  11.1 km/h 88 % 0.00 in /  0 mm
07:52 41.2 °F /  5.1 °C 37.9 °F /  3.3 °C 29.95 in /  1014.1 hPa North 3.9 mph /  6.3 km/h 8.0 mph /  12.9 km/h 88 % 0.00 in /  0 mm
07:57 41.0 °F /  5 °C 37.7 °F /  3.2 °C 29.95 in /  1014.1 hPa NNE 5.7 mph /  9.2 km/h 6.9 mph /  11.1 km/h 88 % 0.00 in /  0 mm
08:02 40.8 °F /  4.9 °C 37.5 °F /  3.1 °C 29.95 in /  1014.1 hPa NNW 5.2 mph /  8.4 km/h 8.1 mph /  13 km/h 88 % 0.00 in /  0 mm
08:07 40.7 °F /  4.8 °C 37.4 °F /  3 °C 29.96 in /  1014.4 hPa North 6.8 mph /  10.9 km/h 11.5 mph /  18.5 km/h 88 % 0.00 in /  0 mm
08:12 40.5 °F /  4.7 °C 37.2 °F /  2.9 °C 29.97 in /  1014.8 hPa NNW 5.0 mph /  8 km/h 9.0 mph /  14.5 km/h 88 % 0.00 in /  0 mm
08:17 40.4 °F /  4.7 °C 37.1 °F /  2.8 °C 29.97 in /  1014.8 hPa NNW 4.9 mph /  7.9 km/h 5.8 mph /  9.3 km/h 88 % 0.00 in /  0 mm
08:22 40.4 °F /  4.7 °C 37.1 °F /  2.8 °C 29.97 in /  1014.8 hPa North 0.5 mph /  0.8 km/h 6.9 mph /  11.1 km/h 88 % 0.00 in /  0 mm
08:27 40.4 °F /  4.7 °C 37.1 °F /  2.8 °C 29.97 in /  1014.8 hPa NW 3.8 mph /  6.1 km/h 5.8 mph /  9.3 km/h 88 % 0.00 in /  0 mm
08:32 40.3 °F /  4.6 °C 37.0 °F /  2.8 °C 29.98 in /  1015.1 hPa NNW 3.7 mph /  6 km/h 6.0 mph /  9.7 km/h 88 % 0.00 in /  0 mm
08:37 40.3 °F /  4.6 °C 37.0 °F /  2.8 °C 29.99 in /  1015.5 hPa WNW 6.8 mph /  10.9 km/h 10.4 mph /  16.7 km/h 88 % 0.00 in /  0 mm
08:43 40.2 °F /  4.6 °C 36.6 °F /  2.6 °C 29.99 in /  1015.5 hPa North 4.5 mph /  7.2 km/h 9.2 mph /  14.8 km/h 87 % 0.00 in /  0 mm
08:48 40.3 °F /  4.6 °C 36.7 °F /  2.6 °C 29.99 in /  1015.5 hPa NNW 4.9 mph /  7.9 km/h 9.0 mph /  14.5 km/h 87 % 0.00 in /  0 mm
08:53 40.4 °F /  4.7 °C 36.8 °F /  2.7 °C 30.00 in /  1015.8 hPa NW 3.1 mph /  5 km/h 8.1 mph /  13 km/h 87 % 0.00 in /  0 mm
08:58 40.5 °F /  4.7 °C 36.9 °F /  2.7 °C 29.99 in /  1015.5 hPa NNW 3.1 mph /  5 km/h 5.0 mph /  8 km/h 87 % 0.00 in /  0 mm
09:03 40.6 °F /  4.8 °C 37.0 °F /  2.8 °C 30.01 in /  1016.1 hPa NNW 5.5 mph /  8.9 km/h 10.4 mph /  16.7 km/h 87 % 0.00 in /  0 mm
09:08 40.6 °F /  4.8 °C 36.7 °F /  2.6 °C 30.00 in /  1015.8 hPa NW 4.4 mph /  7.1 km/h 8.1 mph /  13 km/h 86 % 0.00 in /  0 mm
09:13 40.5 °F /  4.7 °C 36.6 °F /  2.6 °C 30.00 in /  1015.8 hPa North 5.8 mph /  9.3 km/h 9.2 mph /  14.8 km/h 86 % 0.00 in /  0 mm
09:18 40.4 °F /  4.7 °C 36.5 °F /  2.5 °C 30.01 in /  1016.1 hPa NNW 4.0 mph /  6.4 km/h 4.6 mph /  7.4 km/h 86 % 0.00 in /  0 mm
09:23 40.4 °F /  4.7 °C 36.5 °F /  2.5 °C 30.01 in /  1016.1 hPa NNW 3.6 mph /  5.8 km/h 5.0 mph /  8 km/h 86 % 0.00 in /  0 mm
09:28 40.4 °F /  4.7 °C 36.5 °F /  2.5 °C 30.01 in /  1016.1 hPa NW 3.4 mph /  5.5 km/h 7.0 mph /  11.3 km/h 86 % 0.00 in /  0 mm
09:33 40.3 °F /  4.6 °C 36.4 °F /  2.4 °C 30.01 in /  1016.1 hPa NNW 5.1 mph /  8.2 km/h 9.2 mph /  14.8 km/h 86 % 0.00 in /  0 mm
09:38 40.2 °F /  4.6 °C 36.3 °F /  2.4 °C 30.02 in /  1016.5 hPa NNW 3.1 mph /  5 km/h 8.1 mph /  13 km/h 86 % 0.00 in /  0 mm
09:43 40.1 °F /  4.5 °C 36.2 °F /  2.3 °C 30.02 in /  1016.5 hPa NNW 6.1 mph /  9.8 km/h 8.1 mph /  13 km/h 86 % 0.00 in /  0 mm
09:48 40.0 °F /  4.4 °C 36.2 °F /  2.3 °C 30.02 in /  1016.5 hPa NNW 1.6 mph /  2.6 km/h 3.5 mph /  5.6 km/h 86 % 0.00 in /  0 mm
09:53 39.9 °F /  4.4 °C 36.1 °F /  2.3 °C 30.02 in /  1016.5 hPa North 5.2 mph /  8.4 km/h 6.0 mph /  9.7 km/h 86 % 0.00 in /  0 mm
09:58 39.8 °F /  4.3 °C 36.0 °F /  2.2 °C 30.03 in /  1016.8 hPa NW 1.7 mph /  2.7 km/h 3.5 mph /  5.6 km/h 86 % 0.00 in /  0 mm
10:03 39.7 °F /  4.3 °C 35.9 °F /  2.2 °C 30.04 in /  1017.2 hPa WNW 3.8 mph /  6.1 km/h 6.9 mph /  11.1 km/h 86 % 0.00 in /  0 mm
10:08 39.6 °F /  4.2 °C 35.8 °F /  2.1 °C 30.04 in /  1017.2 hPa NNE 0.8 mph /  1.3 km/h 3.5 mph /  5.6 km/h 86 % 0.00 in /  0 mm
10:13 39.6 °F /  4.2 °C 36.0 °F /  2.2 °C 30.05 in /  1017.5 hPa WNW 1.3 mph /  2.1 km/h 5.8 mph /  9.3 km/h 87 % 0.00 in /  0 mm
10:19 39.5 °F /  4.2 °C 36.0 °F /  2.2 °C 30.06 in /  1017.8 hPa North 3.6 mph /  5.8 km/h 4.6 mph /  7.4 km/h 87 % 0.00 in /  0 mm
10:24 39.5 °F /  4.2 °C 36.0 °F /  2.2 °C 30.07 in /  1018.2 hPa NW 1.6 mph /  2.6 km/h 5.0 mph /  8 km/h 87 % 0.00 in /  0 mm
10:29 39.5 °F /  4.2 °C 35.7 °F /  2.1 °C 30.06 in /  1017.8 hPa NNW 4.6 mph /  7.4 km/h 5.8 mph /  9.3 km/h 86 % 0.00 in /  0 mm
10:34 39.5 °F /  4.2 °C 35.7 °F /  2.1 °C 30.07 in /  1018.2 hPa Calm   3.5 mph /  5.6 km/h 86 % 0.00 in /  0 mm
10:39 39.5 °F /  4.2 °C 35.7 °F /  2.1 °C 30.07 in /  1018.2 hPa NW 4.0 mph /  6.4 km/h 7.0 mph /  11.3 km/h 86 % 0.00 in /  0 mm
10:44 39.4 °F /  4.1 °C 35.3 °F /  1.8 °C 30.06 in /  1017.8 hPa NNE 5.0 mph /  8 km/h 8.0 mph /  12.9 km/h 85 % 0.00 in /  0 mm
10:49 39.2 °F /  4 °C 35.1 °F /  1.7 °C 30.07 in /  1018.2 hPa North 2.7 mph /  4.3 km/h 5.8 mph /  9.3 km/h 85 % 0.00 in /  0 mm
10:54 39.1 °F /  3.9 °C 35.0 °F /  1.7 °C 30.07 in /  1018.2 hPa NNE 5.4 mph /  8.7 km/h 8.1 mph /  13 km/h 85 % 0.00 in /  0 mm
10:59 38.9 °F /  3.8 °C 34.5 °F /  1.4 °C 30.06 in /  1017.8 hPa North 3.3 mph /  5.3 km/h 6.9 mph /  11.1 km/h 84 % 0.00 in /  0 mm
11:04 38.9 °F /  3.8 °C 34.5 °F /  1.4 °C 30.07 in /  1018.2 hPa NNW 5.2 mph /  8.4 km/h 10.4 mph /  16.7 km/h 84 % 0.00 in /  0 mm
11:09 38.9 °F /  3.8 °C 34.2 °F /  1.2 °C 30.07 in /  1018.2 hPa NNW 5.8 mph /  9.3 km/h 10.4 mph /  16.7 km/h 83 % 0.00 in /  0 mm
11:14 39.0 °F /  3.9 °C 34.6 °F /  1.4 °C 30.07 in /  1018.2 hPa NNE 4.1 mph /  6.6 km/h 8.1 mph /  13 km/h 84 % 0.00 in /  0 mm
11:19 39.1 °F /  3.9 °C 34.7 °F /  1.5 °C 30.07 in /  1018.2 hPa NNE 4.4 mph /  7.1 km/h 5.8 mph /  9.3 km/h 84 % 0.00 in /  0 mm
11:24 39.1 °F /  3.9 °C 34.7 °F /  1.5 °C 30.08 in /  1018.5 hPa NNW 3.1 mph /  5 km/h 5.0 mph /  8 km/h 84 % 0.00 in /  0 mm
11:29 39.1 °F /  3.9 °C 34.7 °F /  1.5 °C 30.08 in /  1018.5 hPa NNE 2.1 mph /  3.4 km/h 4.6 mph /  7.4 km/h 84 % 0.00 in /  0 mm
11:34 39.2 °F /  4 °C 34.5 °F /  1.4 °C 30.08 in /  1018.5 hPa North 5.1 mph /  8.2 km/h 9.2 mph /  14.8 km/h 83 % 0.00 in /  0 mm
11:39 39.2 °F /  4 °C 34.2 °F /  1.2 °C 30.09 in /  1018.8 hPa NNE 2.5 mph /  4 km/h 6.9 mph /  11.1 km/h 82 % 0.00 in /  0 mm
11:44 39.2 °F /  4 °C 34.5 °F /  1.4 °C 30.09 in /  1018.8 hPa NNW 2.7 mph /  4.3 km/h 4.6 mph /  7.4 km/h 83 % 0.00 in /  0 mm
11:50 39.2 °F /  4 °C 34.5 °F /  1.4 °C 30.09 in /  1018.8 hPa North 1.5 mph /  2.4 km/h 4.6 mph /  7.4 km/h 83 % 0.00 in /  0 mm
11:55 39.2 °F /  4 °C 34.2 °F /  1.2 °C 30.09 in /  1018.8 hPa NNE 3.2 mph /  5.1 km/h 6.0 mph /  9.7 km/h 82 % 0.00 in /  0 mm
12:00 39.1 °F /  3.9 °C 33.8 °F /  1 °C 30.08 in /  1018.5 hPa NW 1.9 mph /  3.1 km/h 9.2 mph /  14.8 km/h 81 % 0.00 in /  0 mm
12:05 39.1 °F /  3.9 °C 33.8 °F /  1 °C 30.09 in /  1018.8 hPa North 3.8 mph /  6.1 km/h 5.8 mph /  9.3 km/h 81 % 0.00 in /  0 mm
12:10 39.1 °F /  3.9 °C 33.5 °F /  0.8 °C 30.09 in /  1018.8 hPa North 1.5 mph /  2.4 km/h 4.6 mph /  7.4 km/h 80 % 0.00 in /  0 mm
12:15 39.2 °F /  4 °C 33.9 °F /  1.1 °C 30.09 in /  1018.8 hPa North 3.3 mph /  5.3 km/h 5.8 mph /  9.3 km/h 81 % 0.00 in /  0 mm
12:20 39.2 °F /  4 °C 33.9 °F /  1.1 °C 30.10 in /  1019.2 hPa North 2.4 mph /  3.9 km/h 4.6 mph /  7.4 km/h 81 % 0.00 in /  0 mm
12:25 39.3 °F /  4.1 °C 34.0 °F /  1.1 °C 30.10 in /  1019.2 hPa NNW 2.0 mph /  3.2 km/h 4.6 mph /  7.4 km/h 81 % 0.00 in /  0 mm
12:30 39.3 °F /  4.1 °C 34.0 °F /  1.1 °C 30.09 in /  1018.8 hPa NW 5.2 mph /  8.4 km/h 8.1 mph /  13 km/h 81 % 0.00 in /  0 mm
12:35 39.3 °F /  4.1 °C 33.3 °F /  0.7 °C 30.09 in /  1018.8 hPa NNW 3.0 mph /  4.8 km/h 4.6 mph /  7.4 km/h 79 % 0.00 in /  0 mm
12:40 39.2 °F /  4 °C 32.6 °F /  0.3 °C 30.10 in /  1019.2 hPa North 5.6 mph /  9 km/h 8.1 mph /  13 km/h 77 % 0.00 in /  0 mm
12:45 39.0 °F /  3.9 °C 32.1 °F /  0.1 °C 30.10 in /  1019.2 hPa North 5.1 mph /  8.2 km/h 7.0 mph /  11.3 km/h 76 % 0.00 in /  0 mm
12:50 39.0 °F /  3.9 °C 32.1 °F /  0.1 °C 30.11 in /  1019.5 hPa North 4.0 mph /  6.4 km/h 6.9 mph /  11.1 km/h 76 % 0.00 in /  0 mm
12:55 39.0 °F /  3.9 °C 32.1 °F /  0.1 °C 30.11 in /  1019.5 hPa North 3.8 mph /  6.1 km/h 5.0 mph /  8 km/h 76 % 0.00 in /  0 mm
13:00 39.0 °F /  3.9 °C 32.4 °F /  0.2 °C 30.11 in /  1019.5 hPa North 2.4 mph /  3.9 km/h 4.0 mph /  6.4 km/h 77 % 0.00 in /  0 mm
13:06 39.1 °F /  3.9 °C 32.5 °F /  0.3 °C 30.11 in /  1019.5 hPa North 3.0 mph /  4.8 km/h 5.0 mph /  8 km/h 77 % 0.00 in /  0 mm
13:11 39.3 °F /  4.1 °C 33.0 °F /  0.6 °C 30.11 in /  1019.5 hPa North 1.0 mph /  1.6 km/h 6.0 mph /  9.7 km/h 78 % 0.00 in /  0 mm
13:16 39.4 °F /  4.1 °C 33.5 °F /  0.8 °C 30.11 in /  1019.5 hPa NNW 2.0 mph /  3.2 km/h 5.0 mph /  8 km/h 79 % 0.00 in /  0 mm
13:21 39.5 °F /  4.2 °C 32.9 °F /  0.5 °C 30.12 in /  1019.9 hPa NNW 1.0 mph /  1.6 km/h 7.0 mph /  11.3 km/h 77 % 0.00 in /  0 mm
13:26 39.6 °F /  4.2 °C 32.9 °F /  0.5 °C 30.11 in /  1019.5 hPa NNW 2.0 mph /  3.2 km/h 6.0 mph /  9.7 km/h 77 % 0.00 in /  0 mm
13:31 39.6 °F /  4.2 °C 32.7 °F /  0.4 °C 30.11 in /  1019.5 hPa NNW 2.0 mph /  3.2 km/h 5.0 mph /  8 km/h 76 % 0.00 in /  0 mm
13:36 39.6 °F /  4.2 °C 32.7 °F /  0.4 °C 30.11 in /  1019.5 hPa NNW 1.4 mph /  2.3 km/h 5.0 mph /  8 km/h 76 % 0.00 in /  0 mm
13:41 39.6 °F /  4.2 °C 32.0 °F /  0 °C 30.11 in /  1019.5 hPa North 2.0 mph /  3.2 km/h 7.0 mph /  11.3 km/h 74 % 0.00 in /  0 mm
13:46 39.7 °F /  4.3 °C 32.4 °F /  0.2 °C 30.11 in /  1019.5 hPa NW 2.8 mph /  4.5 km/h 6.9 mph /  11.1 km/h 75 % 0.00 in /  0 mm
13:50 39.7 °F /  4.3 °C 32.4 °F /  0.2 °C 30.12 in /  1019.9 hPa NNW 2.2 mph /  3.5 km/h 4.0 mph /  6.4 km/h 75 % 0.00 in /  0 mm
13:56 39.7 °F /  4.3 °C 32.5 °F /  0.3 °C 30.12 in /  1019.9 hPa NNW 5.0 mph /  8 km/h 7.0 mph /  11.3 km/h 75 % 0.00 in /  0 mm
14:01 39.8 °F /  4.3 °C 32.2 °F /  0.1 °C 30.12 in /  1019.9 hPa NW 4.9 mph /  7.9 km/h 8.1 mph /  13 km/h 74 % 0.00 in /  0 mm
14:06 40.0 °F /  4.4 °C 32.7 °F /  0.4 °C 30.12 in /  1019.9 hPa NNW 2.6 mph /  4.2 km/h 5.8 mph /  9.3 km/h 75 % 0.00 in /  0 mm
14:11 40.2 °F /  4.6 °C 32.6 °F /  0.3 °C 30.12 in /  1019.9 hPa NNW 4.1 mph /  6.6 km/h 6.0 mph /  9.7 km/h 74 % 0.00 in /  0 mm
14:16 40.4 °F /  4.7 °C 32.4 °F /  0.2 °C 30.13 in /  1020.2 hPa NNW 3.8 mph /  6.1 km/h 8.1 mph /  13 km/h 73 % 0.00 in /  0 mm
14:21 40.4 °F /  4.7 °C 32.4 °F /  0.2 °C 30.13 in /  1020.2 hPa WNW 2.9 mph /  4.7 km/h 7.0 mph /  11.3 km/h 73 % 0.00 in /  0 mm
14:26 40.6 °F /  4.8 °C 33.0 °F /  0.6 °C 30.13 in /  1020.2 hPa North 3.1 mph /  5 km/h 6.9 mph /  11.1 km/h 74 % 0.00 in /  0 mm
14:31 40.7 °F /  4.8 °C 32.4 °F /  0.2 °C 30.14 in /  1020.5 hPa NW 2.6 mph /  4.2 km/h 5.8 mph /  9.3 km/h 72 % 0.00 in /  0 mm
14:36 40.8 °F /  4.9 °C 31.4 °F /  -0.3 °C 30.14 in /  1020.5 hPa NW 4.0 mph /  6.4 km/h 6.9 mph /  11.1 km/h 69 % 0.00 in /  0 mm
14:41 40.9 °F /  4.9 °C 31.5 °F /  -0.3 °C 30.14 in /  1020.5 hPa NW 6.1 mph /  9.8 km/h 10.4 mph /  16.7 km/h 69 % 0.00 in /  0 mm
14:46 40.9 °F /  4.9 °C 31.5 °F /  -0.3 °C 30.15 in /  1020.9 hPa NNW 4.7 mph /  7.6 km/h 7.0 mph /  11.3 km/h 69 % 0.00 in /  0 mm
14:51 40.8 °F /  4.9 °C 31.4 °F /  -0.3 °C 30.16 in /  1021.2 hPa North 2.3 mph /  3.7 km/h 4.6 mph /  7.4 km/h 69 % 0.00 in /  0 mm
14:56 40.6 °F /  4.8 °C 31.2 °F /  -0.4 °C 30.16 in /  1021.2 hPa NNW 3.4 mph /  5.5 km/h 5.8 mph /  9.3 km/h 69 % 0.00 in /  0 mm
15:01 40.5 °F /  4.7 °C 31.1 °F /  -0.5 °C 30.17 in /  1021.6 hPa NNW 4.0 mph /  6.4 km/h 9.2 mph /  14.8 km/h 69 % 0.00 in /  0 mm
15:06 40.4 °F /  4.7 °C 31.0 °F /  -0.6 °C 30.17 in /  1021.6 hPa NW 1.9 mph /  3.1 km/h 8.1 mph /  13 km/h 69 % 0.00 in /  0 mm
15:11 40.2 °F /  4.6 °C 30.8 °F /  -0.7 °C 30.17 in /  1021.6 hPa NNW 2.3 mph /  3.7 km/h 4.6 mph /  7.4 km/h 69 % 0.00 in /  0 mm
15:16 40.1 °F /  4.5 °C 30.7 °F /  -0.7 °C 30.17 in /  1021.6 hPa North 3.4 mph /  5.5 km/h 6.9 mph /  11.1 km/h 69 % 0.00 in /  0 mm
15:22 39.9 °F /  4.4 °C 30.9 °F /  -0.6 °C 30.17 in /  1021.6 hPa North 2.2 mph /  3.5 km/h 4.0 mph /  6.4 km/h 70 % 0.00 in /  0 mm
15:27 39.9 °F /  4.4 °C 30.5 °F /  -0.8 °C 30.18 in /  1021.9 hPa NW 2.1 mph /  3.4 km/h 3.5 mph /  5.6 km/h 69 % 0.00 in /  0 mm
15:32 39.9 °F /  4.4 °C 30.2 °F /  -1 °C 30.17 in /  1021.6 hPa NNE 4.9 mph /  7.9 km/h 6.9 mph /  11.1 km/h 68 % 0.00 in /  0 mm
15:37 39.9 °F /  4.4 °C 30.5 °F /  -0.8 °C 30.17 in /  1021.6 hPa NNW 1.8 mph /  2.9 km/h 3.5 mph /  5.6 km/h 69 % 0.00 in /  0 mm
15:42 40.0 °F /  4.4 °C 31.4 °F /  -0.3 °C 30.17 in /  1021.6 hPa NNW 1.4 mph /  2.3 km/h 3.5 mph /  5.6 km/h 71 % 0.00 in /  0 mm
15:47 39.9 °F /  4.4 °C 31.6 °F /  -0.2 °C 30.18 in /  1021.9 hPa NNE 0.2 mph /  0.3 km/h 2.3 mph /  3.7 km/h 72 % 0.00 in /  0 mm
15:52 39.8 °F /  4.3 °C 31.2 °F /  -0.4 °C 30.18 in /  1021.9 hPa NNW 1.7 mph /  2.7 km/h 4.6 mph /  7.4 km/h 71 % 0.00 in /  0 mm
15:57 39.8 °F /  4.3 °C 31.2 °F /  -0.4 °C 30.19 in /  1022.2 hPa North 1.4 mph /  2.3 km/h 3.5 mph /  5.6 km/h 71 % 0.00 in /  0 mm
16:02 39.7 °F /  4.3 °C 31.1 °F /  -0.5 °C 30.19 in /  1022.2 hPa NW 1.3 mph /  2.1 km/h 4.6 mph /  7.4 km/h 71 % 0.00 in /  0 mm
16:07 39.7 °F /  4.3 °C 31.4 °F /  -0.3 °C 30.19 in /  1022.2 hPa NNW 1.1 mph /  1.8 km/h 4.6 mph /  7.4 km/h 72 % 0.00 in /  0 mm
16:12 39.6 °F /  4.2 °C 31.0 °F /  -0.6 °C 30.20 in /  1022.6 hPa NNE 1.0 mph /  1.6 km/h 8.1 mph /  13 km/h 71 % 0.00 in /  0 mm
16:17 39.6 °F /  4.2 °C 31.3 °F /  -0.4 °C 30.20 in /  1022.6 hPa North 0.1 mph /  0.2 km/h 2.3 mph /  3.7 km/h 72 % 0.00 in /  0 mm
16:22 39.5 °F /  4.2 °C 31.9 °F /  -0.1 °C 30.19 in /  1022.2 hPa North 2.5 mph /  4 km/h 3.5 mph /  5.6 km/h 74 % 0.00 in /  0 mm
16:27 39.5 °F /  4.2 °C 30.9 °F /  -0.6 °C 30.20 in /  1022.6 hPa NW 2.7 mph /  4.3 km/h 8.1 mph /  13 km/h 71 % 0.00 in /  0 mm
16:33 39.5 °F /  4.2 °C 30.5 °F /  -0.8 °C 30.20 in /  1022.6 hPa North 4.2 mph /  6.8 km/h 8.1 mph /  13 km/h 70 % 0.00 in /  0 mm
16:38 39.5 °F /  4.2 °C 30.5 °F /  -0.8 °C 30.20 in /  1022.6 hPa NNW 2.3 mph /  3.7 km/h 3.5 mph /  5.6 km/h 70 % 0.00 in /  0 mm
16:43 39.5 °F /  4.2 °C 30.5 °F /  -0.8 °C 30.20 in /  1022.6 hPa NNW 0.6 mph /  1 km/h 4.6 mph /  7.4 km/h 70 % 0.00 in /  0 mm
16:48 39.4 °F /  4.1 °C 30.4 °F /  -0.9 °C 30.20 in /  1022.6 hPa NNW 1.3 mph /  2.1 km/h 3.5 mph /  5.6 km/h 70 % 0.00 in /  0 mm
16:53 39.3 °F /  4.1 °C 30.3 °F /  -0.9 °C 30.21 in /  1022.9 hPa Calm     70 % 0.00 in /  0 mm
16:58 39.3 °F /  4.1 °C 30.3 °F /  -0.9 °C 30.22 in /  1023.2 hPa NNW 1.1 mph /  1.8 km/h 2.3 mph /  3.7 km/h 70 % 0.00 in /  0 mm
17:03 39.2 °F /  4 °C 30.6 °F /  -0.8 °C 30.22 in /  1023.2 hPa NNW 0.3 mph /  0.5 km/h 2.3 mph /  3.7 km/h 71 % 0.00 in /  0 mm
17:08 39.1 °F /  3.9 °C 30.5 °F /  -0.8 °C 30.23 in /  1023.6 hPa NNW 0.1 mph /  0.2 km/h 1.2 mph /  1.9 km/h 71 % 0.00 in /  0 mm
17:13 39.0 °F /  3.9 °C 30.4 °F /  -0.9 °C 30.23 in /  1023.6 hPa Calm     71 % 0.00 in /  0 mm
17:18 38.9 °F /  3.8 °C 29.9 °F /  -1.2 °C 30.24 in /  1023.9 hPa NNW 0.3 mph /  0.5 km/h 1.2 mph /  1.9 km/h 70 % 0.00 in /  0 mm
17:23 38.7 °F /  3.7 °C 29.8 °F /  -1.2 °C 30.24 in /  1023.9 hPa Calm     70 % 0.00 in /  0 mm
17:28 38.6 °F /  3.7 °C 30.0 °F /  -1.1 °C 30.24 in /  1023.9 hPa Calm     71 % 0.00 in /  0 mm
17:33 38.4 °F /  3.6 °C 29.8 °F /  -1.2 °C 30.24 in /  1023.9 hPa Calm     71 % 0.00 in /  0 mm
17:38 38.3 °F /  3.5 °C 30.1 °F /  -1.1 °C 30.25 in /  1024.3 hPa NNW 0.1 mph /  0.2 km/h 1.2 mph /  1.9 km/h 72 % 0.00 in /  0 mm
17:43 38.1 °F /  3.4 °C 29.9 °F /  -1.2 °C 30.25 in /  1024.3 hPa Calm     72 % 0.00 in /  0 mm
17:49 37.9 °F /  3.3 °C 30.0 °F /  -1.1 °C 30.25 in /  1024.3 hPa Calm     73 % 0.00 in /  0 mm
17:54 37.7 °F /  3.2 °C 29.8 °F /  -1.2 °C 30.25 in /  1024.3 hPa Calm     73 % 0.00 in /  0 mm
17:59 37.4 °F /  3 °C 29.9 °F /  -1.2 °C 30.26 in /  1024.6 hPa Calm     74 % 0.00 in /  0 mm
18:04 37.2 °F /  2.9 °C 29.7 °F /  -1.3 °C 30.25 in /  1024.3 hPa Calm     74 % 0.00 in /  0 mm
18:09 37.0 °F /  2.8 °C 29.8 °F /  -1.2 °C 30.26 in /  1024.6 hPa Calm     75 % 0.00 in /  0 mm
18:14 36.8 °F /  2.7 °C 29.6 °F /  -1.3 °C 30.26 in /  1024.6 hPa Calm     75 % 0.00 in /  0 mm
18:19 36.6 °F /  2.6 °C 29.7 °F /  -1.3 °C 30.26 in /  1024.6 hPa NNW 0.2 mph /  0.3 km/h 2.3 mph /  3.7 km/h 76 % 0.00 in /  0 mm
18:24 36.5 °F /  2.5 °C 29.7 °F /  -1.3 °C 30.26 in /  1024.6 hPa Calm   1.2 mph /  1.9 km/h 76 % 0.00 in /  0 mm
18:29 36.3 °F /  2.4 °C 29.5 °F /  -1.4 °C 30.27 in /  1024.9 hPa NNW 0.8 mph /  1.3 km/h 2.3 mph /  3.7 km/h 76 % 0.00 in /  0 mm
18:34 36.2 °F /  2.3 °C 29.0 °F /  -1.7 °C 30.27 in /  1024.9 hPa NNW 0.6 mph /  1 km/h 2.3 mph /  3.7 km/h 75 % 0.00 in /  0 mm
18:39 36.1 °F /  2.3 °C 28.9 °F /  -1.7 °C 30.27 in /  1024.9 hPa NNW 0.3 mph /  0.5 km/h 3.5 mph /  5.6 km/h 75 % 0.00 in /  0 mm
18:44 36.1 °F /  2.3 °C 28.9 °F /  -1.7 °C 30.28 in /  1025.3 hPa NNW 1.1 mph /  1.8 km/h 2.0 mph /  3.2 km/h 75 % 0.00 in /  0 mm
18:49 36.1 °F /  2.3 °C 28.9 °F /  -1.7 °C 30.28 in /  1025.3 hPa NNW 0.1 mph /  0.2 km/h 1.2 mph /  1.9 km/h 75 % 0.00 in /  0 mm
18:54 36.1 °F /  2.3 °C 28.9 °F /  -1.7 °C 30.28 in /  1025.3 hPa Calm   2.3 mph /  3.7 km/h 75 % 0.00 in /  0 mm
18:59 36.1 °F /  2.3 °C 28.9 °F /  -1.7 °C 30.28 in /  1025.3 hPa NNW 0.1 mph /  0.2 km/h 1.0 mph /  1.6 km/h 75 % 0.00 in /  0 mm
19:04 36.1 °F /  2.3 °C 28.9 °F /  -1.7 °C 30.28 in /  1025.3 hPa Calm     75 % 0.00 in /  0 mm
19:09 36.0 °F /  2.2 °C 29.2 °F /  -1.6 °C 30.29 in /  1025.6 hPa Calm     76 % 0.00 in /  0 mm
19:15 35.9 °F /  2.2 °C 29.1 °F /  -1.6 °C 30.29 in /  1025.6 hPa Calm     76 % 0.00 in /  0 mm
19:20 35.9 °F /  2.2 °C 29.1 °F /  -1.6 °C 30.29 in /  1025.6 hPa Calm     76 % 0.00 in /  0 mm
19:25 35.7 °F /  2.1 °C 29.2 °F /  -1.6 °C 30.29 in /  1025.6 hPa Calm     77 % 0.00 in /  0 mm
19:30 35.6 °F /  2 °C 29.4 °F /  -1.4 °C 30.29 in /  1025.6 hPa Calm     78 % 0.00 in /  0 mm
19:35 35.5 °F /  1.9 °C 29.3 °F /  -1.5 °C 30.30 in /  1026 hPa NNW 1.7 mph /  2.7 km/h 3.5 mph /  5.6 km/h 78 % 0.00 in /  0 mm
19:40 35.3 °F /  1.8 °C 29.1 °F /  -1.6 °C 30.30 in /  1026 hPa NNW 1.0 mph /  1.6 km/h 2.3 mph /  3.7 km/h 78 % 0.00 in /  0 mm
19:45 35.2 °F /  1.8 °C 29.3 °F /  -1.5 °C 30.30 in /  1026 hPa NNW 0.1 mph /  0.2 km/h 1.2 mph /  1.9 km/h 79 % 0.00 in /  0 mm
19:50 34.9 °F /  1.6 °C 29.4 °F /  -1.4 °C 30.30 in /  1026 hPa NNW 1.7 mph /  2.7 km/h 4.0 mph /  6.4 km/h 80 % 0.00 in /  0 mm
19:55 34.8 °F /  1.6 °C 29.0 °F /  -1.7 °C 30.31 in /  1026.3 hPa North 1.1 mph /  1.8 km/h 5.0 mph /  8 km/h 79 % 0.00 in /  0 mm
20:00 34.8 °F /  1.6 °C 29.0 °F /  -1.7 °C 30.32 in /  1026.6 hPa WNW 0.1 mph /  0.2 km/h 1.2 mph /  1.9 km/h 79 % 0.00 in /  0 mm
20:05 34.8 °F /  1.6 °C 29.0 °F /  -1.7 °C 30.32 in /  1026.6 hPa North 3.5 mph /  5.6 km/h 6.0 mph /  9.7 km/h 79 % 0.00 in /  0 mm
20:10 34.9 °F /  1.6 °C 28.7 °F /  -1.8 °C 30.32 in /  1026.6 hPa North 3.3 mph /  5.3 km/h 4.6 mph /  7.4 km/h 78 % 0.00 in /  0 mm
20:15 34.9 °F /  1.6 °C 28.7 °F /  -1.8 °C 30.33 in /  1027 hPa NW 3.0 mph /  4.8 km/h 4.6 mph /  7.4 km/h 78 % 0.00 in /  0 mm
20:20 35.1 °F /  1.7 °C 28.6 °F /  -1.9 °C 30.33 in /  1027 hPa North 5.3 mph /  8.5 km/h 5.8 mph /  9.3 km/h 77 % 0.00 in /  0 mm
20:25 35.1 °F /  1.7 °C 28.9 °F /  -1.7 °C 30.33 in /  1027 hPa NNE 2.8 mph /  4.5 km/h 9.2 mph /  14.8 km/h 78 % 0.00 in /  0 mm
20:30 35.1 °F /  1.7 °C 28.9 °F /  -1.7 °C 30.33 in /  1027 hPa North 2.3 mph /  3.7 km/h 3.5 mph /  5.6 km/h 78 % 0.00 in /  0 mm
20:35 35.1 °F /  1.7 °C 28.9 °F /  -1.7 °C 30.34 in /  1027.3 hPa NNE 2.2 mph /  3.5 km/h 3.5 mph /  5.6 km/h 78 % 0.00 in /  0 mm
20:40 35.0 °F /  1.7 °C 28.5 °F /  -1.9 °C 30.34 in /  1027.3 hPa North 3.6 mph /  5.8 km/h 5.8 mph /  9.3 km/h 77 % 0.00 in /  0 mm
20:45 35.0 °F /  1.7 °C 28.2 °F /  -2.1 °C 30.35 in /  1027.7 hPa NNW 3.4 mph /  5.5 km/h 6.9 mph /  11.1 km/h 76 % 0.00 in /  0 mm
20:51 34.9 °F /  1.6 °C 28.1 °F /  -2.2 °C 30.35 in /  1027.7 hPa North 3.0 mph /  4.8 km/h 7.0 mph /  11.3 km/h 76 % 0.00 in /  0 mm
20:56 34.8 °F /  1.6 °C 28.0 °F /  -2.2 °C 30.35 in /  1027.7 hPa North 3.0 mph /  4.8 km/h 7.0 mph /  11.3 km/h 76 % 0.00 in /  0 mm
21:01 34.7 °F /  1.5 °C 27.9 °F /  -2.3 °C 30.35 in /  1027.7 hPa North 0.7 mph /  1.1 km/h 3.5 mph /  5.6 km/h 76 % 0.00 in /  0 mm
21:06 34.6 °F /  1.4 °C 27.8 °F /  -2.3 °C 30.35 in /  1027.7 hPa North 2.0 mph /  3.2 km/h 6.0 mph /  9.7 km/h 76 % 0.00 in /  0 mm
21:11 34.5 °F /  1.4 °C 27.4 °F /  -2.6 °C 30.36 in /  1028 hPa NNE 3.0 mph /  4.8 km/h 6.0 mph /  9.7 km/h 75 % 0.00 in /  0 mm
21:16 34.4 °F /  1.3 °C 27.0 °F /  -2.8 °C 30.36 in /  1028 hPa North 3.0 mph /  4.8 km/h 6.0 mph /  9.7 km/h 74 % 0.00 in /  0 mm
21:21 34.4 °F /  1.3 °C 27.0 °F /  -2.8 °C 30.36 in /  1028 hPa North 2.0 mph /  3.2 km/h 6.0 mph /  9.7 km/h 74 % 0.00 in /  0 mm
21:26 34.3 °F /  1.3 °C 27.2 °F /  -2.7 °C 30.36 in /  1028 hPa North 4.7 mph /  7.6 km/h 6.0 mph /  9.7 km/h 75 % 0.00 in /  0 mm
21:31 34.2 °F /  1.2 °C 26.8 °F /  -2.9 °C 30.37 in /  1028.3 hPa North 1.0 mph /  1.6 km/h 5.0 mph /  8 km/h 74 % 0.00 in /  0 mm
21:36 34.1 °F /  1.2 °C 26.7 °F /  -2.9 °C 30.36 in /  1028 hPa NNW 2.0 mph /  3.2 km/h 5.0 mph /  8 km/h 74 % 0.00 in /  0 mm
21:41 34.1 °F /  1.2 °C 27.0 °F /  -2.8 °C 30.37 in /  1028.3 hPa North 2.0 mph /  3.2 km/h 5.0 mph /  8 km/h 75 % 0.00 in /  0 mm
21:46 34.0 °F /  1.1 °C 26.9 °F /  -2.8 °C 30.37 in /  1028.3 hPa NNW 1.0 mph /  1.6 km/h 5.0 mph /  8 km/h 75 % 0.00 in /  0 mm
21:51 33.9 °F /  1.1 °C 26.8 °F /  -2.9 °C 30.37 in /  1028.3 hPa North 2.0 mph /  3.2 km/h 7.0 mph /  11.3 km/h 75 % 0.00 in /  0 mm
21:56 33.8 °F /  1 °C 26.7 °F /  -2.9 °C 30.37 in /  1028.3 hPa Calm   4.0 mph /  6.4 km/h 75 % 0.00 in /  0 mm
22:01 33.7 °F /  0.9 °C 26.6 °F /  -3 °C 30.38 in /  1028.7 hPa NNE 0.7 mph /  1.1 km/h 5.0 mph /  8 km/h 75 % 0.00 in /  0 mm
22:06 33.5 °F /  0.8 °C 26.4 °F /  -3.1 °C 30.38 in /  1028.7 hPa Calm   6.0 mph /  9.7 km/h 75 % 0.00 in /  0 mm
22:11 33.4 °F /  0.8 °C 26.3 °F /  -3.2 °C 30.38 in /  1028.7 hPa North 1.0 mph /  1.6 km/h 5.0 mph /  8 km/h 75 % 0.00 in /  0 mm
22:16 33.3 °F /  0.7 °C 26.2 °F /  -3.2 °C 30.38 in /  1028.7 hPa North 2.0 mph /  3.2 km/h 7.0 mph /  11.3 km/h 75 % 0.00 in /  0 mm
22:21 33.2 °F /  0.7 °C 25.8 °F /  -3.4 °C 30.38 in /  1028.7 hPa North 5.0 mph /  8 km/h 9.0 mph /  14.5 km/h 74 % 0.00 in /  0 mm
22:26 33.2 °F /  0.7 °C 25.5 °F /  -3.6 °C 30.39 in /  1029 hPa North 6.0 mph /  9.7 km/h 12.0 mph /  19.3 km/h 73 % 0.00 in /  0 mm
22:31 33.1 °F /  0.6 °C 25.1 °F /  -3.8 °C 30.39 in /  1029 hPa North 1.5 mph /  2.4 km/h 8.1 mph /  13 km/h 72 % 0.00 in /  0 mm
22:36 33.0 °F /  0.6 °C 25.0 °F /  -3.9 °C 30.40 in /  1029.3 hPa North 5.2 mph /  8.4 km/h 5.2 mph /  8.4 km/h 72 % 0.00 in /  0 mm
22:41 33.0 °F /  0.6 °C 25.0 °F /  -3.9 °C 30.40 in /  1029.3 hPa NE 3.6 mph /  5.8 km/h 5.8 mph /  9.3 km/h 72 % 0.00 in /  0 mm
22:47 33.0 °F /  0.6 °C 25.0 °F /  -3.9 °C 30.40 in /  1029.3 hPa NNE 2.2 mph /  3.5 km/h 4.0 mph /  6.4 km/h 72 % 0.00 in /  0 mm
22:52 32.9 °F /  0.5 °C 25.2 °F /  -3.8 °C 30.40 in /  1029.3 hPa North 1.3 mph /  2.1 km/h 4.6 mph /  7.4 km/h 73 % 0.00 in /  0 mm
22:57 32.8 °F /  0.4 °C 25.1 °F /  -3.8 °C 30.40 in /  1029.3 hPa NNE 1.5 mph /  2.4 km/h 3.5 mph /  5.6 km/h 73 % 0.00 in /  0 mm
23:02 32.7 °F /  0.4 °C 25.0 °F /  -3.9 °C 30.40 in /  1029.3 hPa North 4.4 mph /  7.1 km/h 8.1 mph /  13 km/h 73 % 0.00 in /  0 mm
23:07 32.6 °F /  0.3 °C 24.6 °F /  -4.1 °C 30.40 in /  1029.3 hPa North 3.7 mph /  6 km/h 9.2 mph /  14.8 km/h 72 % 0.00 in /  0 mm
23:12 32.5 °F /  0.3 °C 24.5 °F /  -4.2 °C 30.40 in /  1029.3 hPa North 3.3 mph /  5.3 km/h 6.9 mph /  11.1 km/h 72 % 0.00 in /  0 mm
23:17 32.4 °F /  0.2 °C 24.4 °F /  -4.2 °C 30.41 in /  1029.7 hPa North 2.0 mph /  3.2 km/h 3.5 mph /  5.6 km/h 72 % 0.00 in /  0 mm
23:22 32.3 °F /  0.2 °C 24.3 °F /  -4.3 °C 30.41 in /  1029.7 hPa North 1.1 mph /  1.8 km/h 2.3 mph /  3.7 km/h 72 % 0.00 in /  0 mm
23:27 32.3 °F /  0.2 °C 24.3 °F /  -4.3 °C 30.41 in /  1029.7 hPa North 2.1 mph /  3.4 km/h 3.5 mph /  5.6 km/h 72 % 0.00 in /  0 mm
23:32 32.1 °F /  0.1 °C 24.1 °F /  -4.4 °C 30.42 in /  1030 hPa NE 3.6 mph /  5.8 km/h 6.9 mph /  11.1 km/h 72 % 0.00 in /  0 mm
23:37 32.0 °F /  0 °C 24.0 °F /  -4.4 °C 30.42 in /  1030 hPa NNW 4.2 mph /  6.8 km/h 8.0 mph /  12.9 km/h 72 % 0.00 in /  0 mm
23:42 32.0 °F /  0 °C 23.7 °F /  -4.6 °C 30.42 in /  1030 hPa North 4.6 mph /  7.4 km/h 8.1 mph /  13 km/h 71 % 0.00 in /  0 mm
23:47 31.9 °F /  -0.1 °C 23.6 °F /  -4.7 °C 30.42 in /  1030 hPa NW 2.2 mph /  3.5 km/h 5.8 mph /  9.3 km/h 71 % 0.00 in /  0 mm
23:52 31.9 °F /  -0.1 °C 23.6 °F /  -4.7 °C 30.42 in /  1030 hPa North 0.4 mph /  0.6 km/h 3.5 mph /  5.6 km/h 71 % 0.00 in /  0 mm
23:57 31.8 °F /  -0.1 °C 23.1 °F /  -4.9 °C 30.43 in /  1030.4 hPa North 2.6 mph /  4.2 km/h 9.2 mph /  14.8 km/h 70 % 0.00 in /  0 mm
Crab Meadow Weather
Compliments of Weather Underground - 3 mb

Script developed by  Jim McMurry - jmcmurry@mwt.net Adapted for the template by  Wim van der Kuil - Leuven-Template.eu

Astronomy: The gravity on Jupiter is 2.6 times that of the Earth.